Time;durP1;ratioP1;P1;durP2;ratioP2;P2;SDS_P1;SDS_P2;PMS_P1;PMS_P2;Temp;Humidity;BMP_temperature;BMP_pressure;BME280_temperature;BME280_humidity;BME280_pressure;Samples;Min_cycle;Max_cycle;Signal;HPM_P1;HPM_P2
2021/12/24 00:01:10;;;;;;;35.85;10.38;;;8.80;99.90;;;;;;5058380;28;20024;-86
2021/12/24 00:03:37;;;;;;;27.00;9.27;;;8.80;99.90;;;;;;5076129;28;20060;-85
2021/12/24 00:06:04;;;;;;;33.47;9.75;;;8.80;99.90;;;;;;5058117;28;20107;-86
2021/12/24 00:08:30;;;;;;;36.33;10.05;;;8.80;99.90;;;;;;5076085;28;20027;-85
2021/12/24 00:11:00;;;;;;;41.75;9.85;;;8.80;99.90;;;;;;5076018;28;20020;-86
2021/12/24 00:13:28;;;;;;;39.25;11.25;;;8.80;99.90;;;;;;5076005;28;20062;-85
2021/12/24 00:16:18;;;;;;;34.20;11.82;;;8.80;99.90;;;;;;5075961;28;20028;-85
2021/12/24 00:37:20;;;;;;;44.10;13.43;;;8.90;99.90;;;;;;5075858;28;20180;-85
2021/12/24 00:40:14;;;;;;;36.83;13.30;;;8.90;99.90;;;;;;5057606;28;20115;-86
2021/12/24 00:42:33;;;;;;;42.45;12.57;;;8.90;99.90;;;;;;5074913;28;20041;-85
2021/12/24 00:44:59;;;;;;;37.80;12.32;;;8.90;99.90;;;;;;5075251;28;20049;-85
2021/12/24 00:47:25;;;;;;;36.75;12.65;;;8.90;99.90;;;;;;5075475;28;20024;-85
2021/12/24 00:49:52;;;;;;;42.25;13.60;;;8.90;99.90;;;;;;5075899;28;20021;-85
2021/12/24 00:52:43;;;;;;;42.25;12.60;;;8.90;99.90;;;;;;5075174;28;20078;-85
2021/12/24 00:55:08;;;;;;;32.95;12.30;;;8.90;99.90;;;;;;5075285;28;20036;-86
2021/12/24 00:57:39;;;;;;;43.33;13.00;;;8.90;99.90;;;;;;5056637;28;20021;-86
2021/12/24 01:00:30;;;;;;;39.80;12.80;;;8.90;99.90;;;;;;5075222;28;20024;-86
2021/12/24 01:02:59;;;;;;;33.80;12.57;;;8.90;99.90;;;;;;5064443;28;20043;-86
2021/12/24 01:05:26;;;;;;;39.55;12.82;;;8.90;99.90;;;;;;5057094;28;20025;-86
2021/12/24 01:07:52;;;;;;;33.13;11.75;;;8.90;99.90;;;;;;5075008;28;20029;-85
2021/12/24 01:10:28;;;;;;;40.17;12.73;;;8.90;99.90;;;;;;5057386;28;20111;-86
2021/12/24 01:16:27;;;;;;;35.25;11.45;;;9.00;99.90;;;;;;5075315;28;20032;-86
2021/12/24 01:25:00;;;;;;;46.13;11.57;;;9.00;99.90;;;;;;5074947;28;20391;-86
2021/12/24 01:38:17;;;;;;;35.50;10.88;;;9.00;99.90;;;;;;5074695;28;20035;-83
2021/12/24 01:41:04;;;;;;;39.55;11.32;;;9.00;99.90;;;;;;5074054;28;20052;-83
2021/12/24 01:43:29;;;;;;;40.88;10.50;;;9.00;99.90;;;;;;5056215;28;20111;-84
2021/12/24 01:45:57;;;;;;;43.15;10.75;;;9.10;99.90;;;;;;5074246;28;20110;-83
2021/12/24 01:48:24;;;;;;;52.50;11.80;;;9.10;99.90;;;;;;5074135;28;20024;-83
2021/12/24 01:50:51;;;;;;;49.40;12.05;;;9.10;99.90;;;;;;5056237;28;20376;-83
2021/12/24 01:53:20;;;;;;;60.70;12.23;;;9.00;99.90;;;;;;5073882;28;20032;-83
2021/12/24 01:55:48;;;;;;;37.80;9.38;;;9.10;99.90;;;;;;5074435;28;20021;-83
2021/12/24 02:01:35;;;;;;;36.80;9.27;;;9.00;99.90;;;;;;5074353;28;20514;-84
2021/12/24 02:04:01;;;;;;;34.53;8.73;;;9.10;99.90;;;;;;5073892;28;20024;-83
2021/12/24 02:06:27;;;;;;;41.72;9.13;;;9.10;99.90;;;;;;5056078;28;20429;-84
2021/12/24 02:08:53;;;;;;;42.90;9.63;;;9.10;99.90;;;;;;5071748;28;20031;-83
2021/12/24 02:11:19;;;;;;;39.00;8.73;;;9.10;99.90;;;;;;5073867;28;20025;-83
2021/12/24 02:13:44;;;;;;;39.47;8.30;;;9.10;99.90;;;;;;5073656;28;20024;-83
2021/12/24 02:29:57;;;;;;;24.10;8.52;;;9.10;99.90;;;;;;5074255;28;20116;-83
2021/12/24 02:32:22;;;;;;;33.80;8.98;;;9.10;99.90;;;;;;5073328;28;20103;-83
2021/12/24 02:34:49;;;;;;;29.67;7.97;;;9.10;99.90;;;;;;5073454;28;20031;-83
2021/12/24 02:37:14;;;;;;;26.83;7.80;;;9.10;99.90;;;;;;5055378;28;20652;-83
2021/12/24 02:39:41;;;;;;;31.65;8.52;;;9.10;99.90;;;;;;5073393;28;20048;-83
2021/12/24 02:42:16;;;;;;;24.45;7.70;;;9.10;99.90;;;;;;5073446;28;20024;-83
2021/12/24 02:44:43;;;;;;;28.83;8.43;;;9.10;99.90;;;;;;5055522;28;20436;-83
2021/12/24 02:47:36;;;;;;;24.58;7.68;;;9.10;99.90;;;;;;5055407;28;20028;-84
2021/12/24 02:55:12;;;;;;;24.73;8.00;;;9.20;99.90;;;;;;5073673;28;20067;-83
2021/12/24 02:57:40;;;;;;;27.13;8.90;;;9.20;99.90;;;;;;5073169;28;20016;-83
2021/12/24 03:00:19;;;;;;;23.60;8.77;;;9.20;99.90;;;;;;5073484;28;20472;-83
2021/12/24 03:02:45;;;;;;;23.85;9.15;;;9.20;99.90;;;;;;5055331;28;20087;-83
2021/12/24 03:05:13;;;;;;;28.77;10.50;;;9.20;99.90;;;;;;5073106;28;20065;-83
2021/12/24 03:07:39;;;;;;;26.13;10.90;;;9.20;99.90;;;;;;5073128;28;20025;-83
2021/12/24 03:10:11;;;;;;;34.78;12.45;;;9.20;99.90;;;;;;5072918;28;20027;-83
2021/12/24 03:13:26;;;;;;;34.08;12.32;;;9.20;99.90;;;;;;5055078;28;20486;-83
2021/12/24 03:15:54;;;;;;;32.97;12.25;;;9.30;99.90;;;;;;5055161;28;20040;-83
2021/12/24 03:21:57;;;;;;;39.00;12.35;;;9.20;99.90;;;;;;5077167;28;20082;-83
2021/12/24 03:26:49;;;;;;;26.52;10.20;;;9.20;99.90;;;;;;5077246;28;20136;-83
2021/12/24 03:29:16;;;;;;;29.67;10.52;;;9.30;99.90;;;;;;5076971;28;20020;-83
2021/12/24 03:31:43;;;;;;;22.65;8.88;;;9.20;99.90;;;;;;5076868;28;20028;-83
2021/12/24 03:34:21;;;;;;;34.55;11.02;;;9.20;99.90;;;;;;5058966;28;20025;-83
2021/12/24 03:36:47;;;;;;;33.10;9.93;;;9.20;99.90;;;;;;5076822;28;20115;-83
2021/12/24 03:39:14;;;;;;;27.27;9.77;;;9.20;99.90;;;;;;5058868;28;20056;-85
2021/12/24 03:41:40;;;;;;;33.85;10.07;;;9.20;99.90;;;;;;5076819;28;20020;-85
2021/12/24 03:44:08;;;;;;;33.90;10.20;;;9.20;99.90;;;;;;5076627;28;20132;-85
2021/12/24 03:49:17;;;;;;;27.38;8.93;;;9.20;99.90;;;;;;5076927;28;20024;-85
2021/12/24 03:56:54;;;;;;;29.67;9.25;;;9.20;99.90;;;;;;5054727;28;20037;-85
2021/12/24 03:59:20;;;;;;;29.42;9.02;;;9.20;99.90;;;;;;5076302;28;20036;-85
2021/12/24 04:01:46;;;;;;;27.85;8.38;;;9.20;99.90;;;;;;5076245;28;20027;-84
2021/12/24 04:04:12;;;;;;;24.27;9.30;;;9.30;99.90;;;;;;5076180;28;20031;-85
2021/12/24 04:06:38;;;;;;;24.40;9.50;;;9.20;99.90;;;;;;5076225;28;20016;-85
2021/12/24 04:09:06;;;;;;;26.52;9.05;;;9.20;99.90;;;;;;5076159;28;20017;-85
2021/12/24 04:11:32;;;;;;;28.40;9.27;;;9.20;99.90;;;;;;5076159;28;20492;-85
2021/12/24 04:13:57;;;;;;;29.55;9.73;;;9.20;99.90;;;;;;5058152;28;20115;-85
2021/12/24 04:16:23;;;;;;;30.40;10.00;;;9.20;99.90;;;;;;5076052;28;20373;-85
2021/12/24 04:19:01;;;;;;;35.25;10.77;;;9.20;99.90;;;;;;5076022;28;20044;-85
2021/12/24 04:26:54;;;;;;;26.80;9.27;;;9.20;99.90;;;;;;5056278;28;20036;-85
2021/12/24 04:29:20;;;;;;;35.65;10.95;;;9.20;99.90;;;;;;5055704;28;20021;-85
2021/12/24 04:32:05;;;;;;;29.67;9.48;;;9.20;99.90;;;;;;5054556;28;20021;-85
2021/12/24 04:34:33;;;;;;;25.88;8.85;;;9.20;99.90;;;;;;5056158;28;20059;-84
2021/12/24 05:04:04;;;;;;;25.95;6.25;;;9.10;99.90;;;;;;5055396;28;20108;-84
2021/12/24 05:06:37;;;;;;;20.90;6.90;;;9.10;99.90;;;;;;5055356;28;20044;-84
2021/12/24 05:09:10;;;;;;;25.35;6.53;;;9.10;99.90;;;;;;5055403;28;20025;-84
2021/12/24 05:11:36;;;;;;;19.55;5.80;;;9.10;99.90;;;;;;5037214;28;20029;-84
2021/12/24 05:14:03;;;;;;;18.52;6.32;;;9.10;99.90;;;;;;5055089;28;20500;-84
2021/12/24 05:16:47;;;;;;;20.92;6.28;;;9.10;99.90;;;;;;5055207;28;20036;-84
2021/12/24 05:21:56;;;;;;;26.55;6.43;;;9.10;99.90;;;;;;5054756;28;20036;-84
2021/12/24 05:24:26;;;;;;;24.95;5.05;;;9.10;99.90;;;;;;5053494;28;20028;-84
2021/12/24 05:26:58;;;;;;;18.40;5.07;;;9.10;99.90;;;;;;5055038;28;20027;-84
2021/12/24 05:29:24;;;;;;;28.35;7.18;;;9.10;99.90;;;;;;5054650;28;20502;-84
2021/12/24 05:31:50;;;;;;;20.35;5.28;;;9.10;99.90;;;;;;5054522;28;20100;-84
2021/12/24 05:34:18;;;;;;;22.92;5.15;;;9.10;99.90;;;;;;5036741;28;20109;-84
2021/12/24 05:36:45;;;;;;;23.77;5.15;;;9.00;99.90;;;;;;5054802;28;20017;-84
2021/12/24 05:39:11;;;;;;;18.15;5.35;;;9.10;99.90;;;;;;5054433;28;20025;-84
2021/12/24 05:41:39;;;;;;;25.27;5.40;;;9.00;99.90;;;;;;5054394;28;20427;-84
2021/12/24 05:44:05;;;;;;;19.58;4.40;;;9.00;99.90;;;;;;5054003;28;20055;-84
2021/12/24 05:46:31;;;;;;;16.58;4.60;;;9.00;99.90;;;;;;5054279;28;20388;-84
2021/12/24 05:48:57;;;;;;;30.67;5.65;;;9.00;99.90;;;;;;5054192;28;20021;-84
2021/12/24 05:51:22;;;;;;;23.95;5.53;;;8.90;99.90;;;;;;5053071;28;20489;-84
2021/12/24 05:53:48;;;;;;;17.60;4.40;;;8.90;99.90;;;;;;5052911;28;20032;-84
2021/12/24 05:56:13;;;;;;;22.80;5.65;;;8.90;99.90;;;;;;5054155;28;20033;-84
2021/12/24 05:58:39;;;;;;;20.92;4.78;;;8.90;99.90;;;;;;5054102;28;20536;-84
2021/12/24 06:01:05;;;;;;;19.10;5.35;;;8.90;99.90;;;;;;5054016;28;20116;-84
2021/12/24 06:03:31;;;;;;;21.85;5.55;;;8.90;99.90;;;;;;5052729;28;20358;-84
2021/12/24 06:05:56;;;;;;;16.30;4.88;;;8.90;99.90;;;;;;5053894;28;20024;-84
2021/12/24 06:08:22;;;;;;;20.58;4.70;;;8.90;99.90;;;;;;5053953;28;20078;-84
2021/12/24 06:10:47;;;;;;;18.25;3.75;;;8.90;99.90;;;;;;5035949;28;20456;-83
2021/12/24 06:13:13;;;;;;;23.80;4.85;;;8.90;99.90;;;;;;5054085;28;20087;-84
2021/12/24 06:15:44;;;;;;;20.13;5.03;;;8.90;99.90;;;;;;5053909;28;20108;-84
2021/12/24 06:18:17;;;;;;;22.00;4.80;;;8.90;99.90;;;;;;5054423;28;20025;-84
2021/12/24 06:20:43;;;;;;;18.20;5.13;;;8.90;99.90;;;;;;5035880;28;20492;-84
2021/12/24 06:23:09;;;;;;;19.92;4.43;;;8.90;99.90;;;;;;5035714;28;20017;-84
2021/12/24 06:25:35;;;;;;;18.42;4.40;;;8.80;99.90;;;;;;5035786;28;20123;-83
2021/12/24 06:28:01;;;;;;;16.45;4.75;;;8.80;99.90;;;;;;5053627;28;20035;-84
2021/12/24 06:30:29;;;;;;;16.95;4.05;;;8.80;99.90;;;;;;5053549;28;20021;-84
2021/12/24 06:32:56;;;;;;;18.58;4.05;;;8.80;99.90;;;;;;5035625;28;20028;-84
2021/12/24 06:35:24;;;;;;;23.17;4.05;;;8.70;99.90;;;;;;5053472;28;20385;-84
2021/12/24 06:37:50;;;;;;;22.95;4.82;;;8.70;99.90;;;;;;5035566;28;20484;-84
2021/12/24 06:40:15;;;;;;;22.30;4.55;;;8.70;99.90;;;;;;5035638;28;20021;-84
2021/12/24 06:42:41;;;;;;;21.73;4.90;;;8.70;99.90;;;;;;5053653;28;20380;-84
2021/12/24 06:45:07;;;;;;;13.02;3.70;;;8.70;99.90;;;;;;5053665;28;20045;-84
2021/12/24 06:47:32;;;;;;;16.67;3.35;;;8.70;99.90;;;;;;5053395;28;20025;-84
2021/12/24 06:49:58;;;;;;;18.42;4.00;;;8.70;99.90;;;;;;5053244;28;20024;-84
2021/12/24 06:52:23;;;;;;;14.95;2.75;;;8.80;99.90;;;;;;5035370;28;20029;-84
2021/12/24 06:54:49;;;;;;;15.63;3.65;;;8.70;99.90;;;;;;5052653;28;20025;-84
2021/12/24 06:57:18;;;;;;;13.80;3.78;;;8.70;99.90;;;;;;5053733;28;20087;-84
2021/12/24 06:59:44;;;;;;;15.02;3.22;;;8.60;99.90;;;;;;5051953;28;20029;-84
2021/12/24 07:02:09;;;;;;;14.25;4.30;;;8.70;99.90;;;;;;5053221;28;20028;-84
2021/12/24 07:04:35;;;;;;;11.77;3.50;;;8.70;99.90;;;;;;5053129;28;20021;-84
2021/12/24 07:07:01;;;;;;;16.80;3.63;;;8.70;99.90;;;;;;5053064;28;20013;-84
2021/12/24 07:09:26;;;;;;;17.45;3.72;;;8.60;99.90;;;;;;5063611;28;20029;-84
2021/12/24 07:11:52;;;;;;;17.92;3.55;;;8.60;99.90;;;;;;5073052;28;20034;-83
2021/12/24 07:14:17;;;;;;;17.73;3.85;;;8.60;99.90;;;;;;5072869;28;20381;-84
2021/12/24 07:16:43;;;;;;;17.75;3.97;;;8.70;99.90;;;;;;5073337;28;20035;-84
2021/12/24 07:19:09;;;;;;;14.07;3.40;;;8.70;99.90;;;;;;5072767;28;20460;-84
2021/12/24 07:21:35;;;;;;;12.55;3.30;;;8.70;99.90;;;;;;5057785;28;20108;-84
2021/12/24 07:24:02;;;;;;;12.38;3.80;;;8.70;99.90;;;;;;5054556;28;20059;-84
2021/12/24 07:26:27;;;;;;;13.35;3.15;;;8.60;99.90;;;;;;5054746;28;20023;-84
2021/12/24 07:28:53;;;;;;;14.23;2.53;;;8.60;99.90;;;;;;5073035;28;20028;-84
2021/12/24 07:31:18;;;;;;;13.43;4.28;;;8.70;99.90;;;;;;5066194;28;20427;-84
2021/12/24 07:33:44;;;;;;;14.38;3.40;;;8.60;99.90;;;;;;5055137;28;20025;-85
2021/12/24 07:36:10;;;;;;;9.10;2.80;;;8.70;99.90;;;;;;5032212;28;20029;-84
2021/12/24 07:38:35;;;;;;;25.52;4.20;;;8.60;99.90;;;;;;5059304;28;20082;-84
2021/12/24 07:41:01;;;;;;;20.13;3.45;;;8.60;99.90;;;;;;5069924;28;20044;-85
2021/12/24 07:43:26;;;;;;;18.92;3.45;;;8.60;99.90;;;;;;5069791;28;20078;-85
2021/12/24 07:45:54;;;;;;;15.63;3.83;;;8.70;99.90;;;;;;5087257;28;20107;-85
2021/12/24 07:48:27;;;;;;;19.27;3.00;;;8.60;99.90;;;;;;5091033;28;20532;-84
2021/12/24 07:53:19;;;;;;;14.52;3.97;;;8.70;99.90;;;;;;5083384;28;20085;-85
2021/12/24 07:55:45;;;;;;;19.10;3.38;;;8.70;99.90;;;;;;5070384;28;20028;-84
2021/12/24 07:58:14;;;;;;;17.98;3.15;;;8.70;99.90;;;;;;5051860;28;20032;-84
2021/12/24 08:00:40;;;;;;;21.50;3.65;;;8.70;99.90;;;;;;5070110;28;20016;-84
2021/12/24 08:03:07;;;;;;;14.88;3.53;;;8.70;99.90;;;;;;5069728;28;20047;-84
2021/12/24 08:05:35;;;;;;;12.88;3.67;;;8.70;99.90;;;;;;5070966;28;20032;-84
2021/12/24 08:08:01;;;;;;;18.17;3.63;;;8.70;99.90;;;;;;5073568;28;20082;-84
2021/12/24 08:10:30;;;;;;;14.52;2.97;;;8.70;99.90;;;;;;5073208;28;20028;-84
2021/12/24 08:12:55;;;;;;;20.92;4.05;;;8.70;99.90;;;;;;5055358;28;20127;-84
2021/12/24 08:15:21;;;;;;;20.02;3.35;;;8.70;99.90;;;;;;5073597;28;20112;-84
2021/12/24 08:17:47;;;;;;;23.55;3.30;;;8.70;99.90;;;;;;5055476;28;20013;-84
2021/12/24 08:20:15;;;;;;;17.88;3.50;;;8.70;99.90;;;;;;5055586;28;20451;-84
2021/12/24 08:22:41;;;;;;;17.48;3.05;;;8.70;99.90;;;;;;5054994;28;20024;-85
2021/12/24 08:25:08;;;;;;;22.38;3.72;;;8.70;99.90;;;;;;5055442;28;20361;-86
2021/12/24 08:27:40;;;;;;;17.92;3.13;;;8.70;99.90;;;;;;5074032;28;20021;-85
2021/12/24 08:30:07;;;;;;;14.93;3.17;;;8.70;99.90;;;;;;5073328;28;20377;-84
2021/12/24 08:32:37;;;;;;;17.83;3.75;;;8.70;99.90;;;;;;5042753;28;20029;-85
2021/12/24 08:35:03;;;;;;;24.98;4.32;;;8.80;99.90;;;;;;5061364;28;20025;-84
2021/12/24 08:37:29;;;;;;;24.15;3.67;;;8.70;99.90;;;;;;5057711;28;20036;-85
2021/12/24 08:39:55;;;;;;;16.85;3.40;;;8.80;99.90;;;;;;5044856;28;20031;-85
2021/12/24 08:42:20;;;;;;;31.33;4.63;;;8.80;99.90;;;;;;5055192;28;20432;-84
2021/12/24 08:44:46;;;;;;;26.27;4.95;;;8.90;99.90;;;;;;5055040;28;20483;-84
2021/12/24 08:47:11;;;;;;;20.73;3.60;;;8.90;99.90;;;;;;5073053;28;20047;-84
2021/12/24 08:49:37;;;;;;;19.45;3.70;;;8.90;99.90;;;;;;5065274;28;20439;-84
2021/12/24 08:52:04;;;;;;;12.45;3.22;;;9.00;99.90;;;;;;5057441;28;20055;-84
2021/12/24 08:54:29;;;;;;;16.20;3.95;;;9.00;99.90;;;;;;5069873;28;20028;-84
2021/12/24 08:56:57;;;;;;;14.68;4.07;;;9.00;99.90;;;;;;5055223;28;20107;-85
2021/12/24 08:59:23;;;;;;;28.08;4.15;;;9.00;99.90;;;;;;5075248;28;20024;-84
2021/12/24 09:01:53;;;;;;;18.95;3.63;;;9.00;99.90;;;;;;5075139;28;20384;-84
2021/12/24 09:04:19;;;;;;;15.73;3.63;;;9.00;99.90;;;;;;5075114;28;20024;-84
2021/12/24 09:06:44;;;;;;;24.30;4.30;;;9.00;99.90;;;;;;5055846;28;20352;-84
2021/12/24 09:09:10;;;;;;;22.52;4.38;;;9.10;99.90;;;;;;5061074;28;20524;-84
2021/12/24 09:11:41;;;;;;;16.27;4.20;;;9.10;99.90;;;;;;5039888;28;20055;-84
2021/12/24 09:14:08;;;;;;;26.15;4.20;;;9.20;99.90;;;;;;5054271;28;20453;-85
2021/12/24 09:16:35;;;;;;;25.95;4.70;;;9.10;99.90;;;;;;5073229;28;20229;-84
2021/12/24 09:19:06;;;;;;;22.83;5.22;;;9.10;99.90;;;;;;5059571;28;20017;-84
2021/12/24 09:21:33;;;;;;;25.58;5.20;;;9.10;99.90;;;;;;5074607;28;20558;-84
2021/12/24 09:23:59;;;;;;;25.88;4.60;;;9.00;99.90;;;;;;5078527;28;20034;-84
2021/12/24 09:26:48;;;;;;;16.42;4.35;;;8.90;99.90;;;;;;5076927;28;20467;-84
2021/12/24 09:29:13;;;;;;;19.02;4.45;;;8.80;99.90;;;;;;5095337;28;20024;-83
2021/12/24 09:31:39;;;;;;;17.88;4.18;;;8.80;99.90;;;;;;5076888;28;20028;-83
2021/12/24 09:34:05;;;;;;;17.48;4.75;;;8.70;99.90;;;;;;5070703;28;20021;-82
2021/12/24 09:36:31;;;;;;;16.08;3.67;;;8.70;99.90;;;;;;5074596;28;20125;-83
2021/12/24 09:42:19;;;;;;;11.55;2.83;;;8.80;99.90;;;;;;5073989;28;20444;-83
2021/12/24 09:44:44;;;;;;;10.85;2.80;;;8.80;99.90;;;;;;5053978;28;20140;-83
2021/12/24 09:47:10;;;;;;;8.07;2.50;;;8.70;99.90;;;;;;5071996;28;20168;-82
2021/12/24 09:49:36;;;;;;;6.40;1.50;;;8.70;99.90;;;;;;5074260;28;20051;-82
2021/12/24 09:52:03;;;;;;;4.55;1.00;;;8.70;99.90;;;;;;5074198;28;20059;-82
2021/12/24 09:54:29;;;;;;;1.10;1.00;;;8.70;99.90;;;;;;5056110;28;20537;-82
2021/12/24 09:56:56;;;;;;;1.55;0.60;;;8.70;99.90;;;;;;5072695;28;20024;-82
2021/12/24 09:59:22;;;;;;;1.75;0.45;;;8.70;99.90;;;;;;5070789;28;20020;-82
2021/12/24 10:02:14;;;;;;;1.25;0.25;;;8.60;99.90;;;;;;5071998;28;20107;-83
2021/12/24 10:04:41;;;;;;;1.35;0.35;;;8.60;99.90;;;;;;5073351;28;20016;-82
2021/12/24 10:07:10;;;;;;;0.30;0.20;;;8.50;99.90;;;;;;5071451;28;20142;-83
2021/12/24 10:09:42;;;;;;;0.20;0.20;;;8.50;99.90;;;;;;5053074;28;20032;-82
2021/12/24 10:12:13;;;;;;;0.32;0.30;;;8.50;99.90;;;;;;5053322;28;20038;-83
2021/12/24 10:14:46;;;;;;;0.43;0.43;;;8.50;99.90;;;;;;5071667;28;20031;-83
2021/12/24 10:17:35;;;;;;;0.60;0.60;;;8.40;99.90;;;;;;5071086;28;20031;-83
2021/12/24 10:20:13;;;;;;;0.40;0.40;;;8.40;99.90;;;;;;5051459;28;20025;-82
2021/12/24 10:22:45;;;;;;;1.08;0.47;;;8.40;99.90;;;;;;5033547;28;20512;-81
2021/12/24 10:25:13;;;;;;;0.47;0.28;;;8.10;99.90;;;;;;5067225;28;20058;-81
2021/12/24 10:27:40;;;;;;;0.30;0.20;;;8.00;99.90;;;;;;5059666;28;20059;-81
2021/12/24 10:30:27;;;;;;;0.65;0.40;;;8.00;99.90;;;;;;5090594;28;20020;-81
2021/12/24 10:32:55;;;;;;;1.40;0.40;;;7.80;99.90;;;;;;5091490;28;20252;-81
2021/12/24 10:35:28;;;;;;;0.20;0.20;;;7.90;99.90;;;;;;5089349;28;20031;-81
2021/12/24 10:38:14;;;;;;;1.40;0.55;;;7.90;99.90;;;;;;5053604;28;20496;-81
2021/12/24 10:40:59;;;;;;;2.72;0.50;;;7.80;99.90;;;;;;5053636;28;20025;-81
2021/12/24 10:43:30;;;;;;;1.63;0.60;;;7.80;99.90;;;;;;5062317;28;20496;-81
2021/12/24 10:46:12;;;;;;;2.50;0.40;;;7.70;99.90;;;;;;5062446;28;20031;-81
2021/12/24 10:48:46;;;;;;;1.75;0.45;;;7.60;99.90;;;;;;5058323;28;20381;-81
2021/12/24 10:51:20;;;;;;;4.00;1.08;;;7.50;99.90;;;;;;5065430;28;20024;-82
2021/12/24 10:54:03;;;;;;;1.40;0.57;;;7.50;99.90;;;;;;5071255;28;20373;-81
2021/12/24 10:56:28;;;;;;;1.10;0.85;;;7.40;99.90;;;;;;5070459;28;20036;-82
2021/12/24 10:58:54;;;;;;;1.00;0.52;;;7.50;99.90;;;;;;5040560;28;20028;-81
2021/12/24 11:01:19;;;;;;;1.50;0.52;;;7.50;99.90;;;;;;5054845;28;20035;-82
2021/12/24 11:03:46;;;;;;;2.22;0.98;;;7.50;99.90;;;;;;5066299;28;20036;-82
2021/12/24 11:06:15;;;;;;;1.30;0.98;;;7.60;99.90;;;;;;5044509;28;20055;-82
2021/12/24 11:08:42;;;;;;;2.92;1.10;;;7.70;99.90;;;;;;5058736;28;20017;-83
2021/12/24 11:11:14;;;;;;;0.65;0.40;;;7.60;99.90;;;;;;5059428;28;20051;-83
2021/12/24 11:13:44;;;;;;;1.98;0.90;;;7.60;99.90;;;;;;5070839;28;20033;-83
2021/12/24 11:16:15;;;;;;;1.00;0.75;;;7.50;99.90;;;;;;5086303;28;20113;-83
2021/12/24 11:18:45;;;;;;;1.40;1.08;;;7.50;99.90;;;;;;5083943;28;20043;-82
2021/12/24 11:21:17;;;;;;;1.92;1.73;;;7.40;99.90;;;;;;5067321;28;20075;-83
2021/12/24 11:23:43;;;;;;;1.67;1.20;;;7.40;99.90;;;;;;5060082;28;20035;-83
2021/12/24 11:26:39;;;;;;;1.42;1.05;;;7.50;99.90;;;;;;5038723;28;20111;-83
2021/12/24 11:29:04;;;;;;;1.85;0.90;;;7.50;99.90;;;;;;5070152;28;20023;-82
2021/12/24 11:31:32;;;;;;;1.38;1.20;;;7.70;99.90;;;;;;5072339;28;20450;-82
2021/12/24 11:33:58;;;;;;;1.88;1.17;;;7.70;99.90;;;;;;5058436;28;20380;-83
2021/12/24 11:36:27;;;;;;;2.70;1.17;;;7.80;99.90;;;;;;5070062;28;20496;-83
2021/12/24 11:38:58;;;;;;;1.85;0.90;;;7.80;99.90;;;;;;5067810;28;20619;-82
2021/12/24 11:41:26;;;;;;;1.40;1.00;;;7.90;99.90;;;;;;5072615;28;20032;-82
2021/12/24 11:43:54;;;;;;;2.60;0.93;;;8.20;99.90;;;;;;5076660;28;20083;-82
2021/12/24 11:46:22;;;;;;;1.20;0.90;;;8.10;71.60;;;;;;5076850;28;20028;-83
2021/12/24 11:48:50;;;;;;;1.00;0.88;;;8.00;27.50;;;;;;5073475;28;20062;-82
2021/12/24 11:51:20;;;;;;;1.15;0.88;;;8.00;19.10;;;;;;5071705;28;20066;-82
2021/12/24 11:53:46;;;;;;;0.80;0.70;;;7.80;25.00;;;;;;5073001;28;20112;-82
2021/12/24 11:56:17;;;;;;;1.65;0.50;;;7.70;7.10;;;;;;5055235;28;20258;-82
2021/12/24 11:58:51;;;;;;;2.65;0.77;;;7.70;1.00;;;;;;5072365;28;20025;-82
2021/12/24 12:01:23;;;;;;;0.82;0.57;;;7.70;1.00;;;;;;5070880;28;20127;-83
2021/12/24 12:03:56;;;;;;;1.10;0.90;;;7.60;1.00;;;;;;5077185;28;20146;-82
2021/12/24 12:06:22;;;;;;;2.13;1.40;;;7.60;34.70;;;;;;5072598;28;20029;-82
2021/12/24 12:09:04;;;;;;;1.17;1.00;;;7.60;1.00;;;;;;5073453;28;20027;-82
2021/12/24 12:11:35;;;;;;;1.55;1.27;;;7.60;1.00;;;;;;5073852;28;20487;-82
2021/12/24 12:14:03;;;;;;;2.15;0.90;;;7.60;1.00;;;;;;5082812;28;20032;-82
2021/12/24 12:16:41;;;;;;;1.35;1.15;;;7.60;1.00;;;;;;5072137;28;20031;-82
2021/12/24 12:19:32;;;;;;;3.38;1.30;;;7.50;1.00;;;;;;5078226;28;20506;-82
2021/12/24 12:22:15;;;;;;;1.55;1.02;;;7.50;1.00;;;;;;5097256;28;20162;-82
2021/12/24 12:27:19;;;;;;;3.03;1.80;;;7.50;1.00;;;;;;5091076;28;20134;-82
2021/12/24 12:29:45;;;;;;;3.65;1.27;;;7.50;1.00;;;;;;5073664;28;20108;-82
2021/12/24 12:32:17;;;;;;;2.85;1.30;;;7.60;1.00;;;;;;5054637;28;20028;-82
2021/12/24 12:34:46;;;;;;;3.17;1.35;;;7.70;1.00;;;;;;5073475;28;20085;-82
2021/12/24 12:37:19;;;;;;;2.63;1.55;;;7.60;1.00;;;;;;5073229;28;20016;-82
2021/12/24 12:39:48;;;;;;;1.73;1.42;;;7.70;1.00;;;;;;5055485;28;20028;-82
2021/12/24 12:42:16;;;;;;;2.08;1.45;;;7.60;99.90;;;;;;5073452;28;20530;-82
2021/12/24 12:44:49;;;;;;;3.65;2.42;;;7.70;1.00;;;;;;5072996;28;20040;-82
2021/12/24 12:47:22;;;;;;;2.35;1.50;;;7.80;99.90;;;;;;5073123;28;20515;-82
2021/12/24 12:49:51;;;;;;;2.30;1.20;;;7.90;1.00;;;;;;5073259;28;20020;-83
2021/12/24 12:52:32;;;;;;;2.55;1.42;;;7.90;99.90;;;;;;5054188;28;20024;-82
2021/12/24 12:54:58;;;;;;;4.05;1.50;;;7.80;99.90;;;;;;5073400;28;20020;-82
2021/12/24 12:57:36;;;;;;;3.75;1.40;;;7.90;99.90;;;;;;5073117;28;20032;-82
2021/12/24 13:00:07;;;;;;;3.33;1.52;;;7.90;99.90;;;;;;5073585;28;20024;-82
2021/12/24 13:03:16;;;;;;;3.80;1.55;;;7.80;99.90;;;;;;5072411;28;20028;-81
2021/12/24 13:05:42;;;;;;;4.47;1.60;;;7.90;99.90;;;;;;5055074;28;20036;-82
2021/12/24 13:08:14;;;;;;;2.85;1.63;;;7.90;99.90;;;;;;5072712;28;20021;-82
2021/12/24 13:10:39;;;;;;;3.10;1.88;;;8.00;99.90;;;;;;5071393;28;20024;-82
2021/12/24 13:13:06;;;;;;;1.70;1.40;;;8.10;99.90;;;;;;5072649;28;20092;-82
2021/12/24 13:15:44;;;;;;;2.38;1.88;;;8.10;99.90;;;;;;5069648;28;20035;-83
2021/12/24 13:18:34;;;;;;;1.60;1.25;;;8.10;99.90;;;;;;5053901;28;20078;-82
2021/12/24 13:23:50;;;;;;;103.75;26.48;;;8.10;99.90;;;;;;5067138;28;20110;-83
2021/12/24 13:26:19;;;;;;;25.98;6.88;;;8.20;99.90;;;;;;5068197;28;20020;-83
2021/12/24 13:28:56;;;;;;;4.50;2.10;;;8.20;99.90;;;;;;5071338;28;20472;-83
2021/12/24 13:31:21;;;;;;;6.78;2.50;;;8.40;99.90;;;;;;5070167;28;20064;-82
2021/12/24 13:33:47;;;;;;;7.97;4.88;;;8.40;99.90;;;;;;5053272;28;20059;-83
2021/12/24 13:36:13;;;;;;;2.78;2.42;;;8.50;99.90;;;;;;5068811;28;20040;-83
2021/12/24 13:38:39;;;;;;;3.60;1.65;;;8.40;99.90;;;;;;5049159;28;20627;-82
2021/12/24 13:41:05;;;;;;;3.50;1.60;;;8.60;99.90;;;;;;5060334;28;20029;-83
2021/12/24 13:43:35;;;;;;;2.08;1.63;;;8.30;99.90;;;;;;5057695;28;20032;-82
2021/12/24 13:46:10;;;;;;;4.43;2.10;;;8.30;99.90;;;;;;5063065;28;20055;-83
2021/12/24 13:49:07;;;;;;;1.52;1.40;;;8.30;99.90;;;;;;5051319;28;20028;-83
2021/12/24 13:54:33;;;;;;;3.60;1.50;;;8.20;99.90;;;;;;5053918;28;20056;-82
2021/12/24 13:57:05;;;;;;;2.90;1.70;;;8.10;99.90;;;;;;5066619;28;20488;-82
2021/12/24 13:59:34;;;;;;;9.55;4.18;;;8.10;99.90;;;;;;5059486;28;20027;-82
2021/12/24 14:02:12;;;;;;;8.18;4.05;;;8.10;99.90;;;;;;5068471;28;20024;-82
2021/12/24 14:04:38;;;;;;;10.18;3.58;;;8.20;99.90;;;;;;5040282;28;20065;-82
2021/12/24 14:07:04;;;;;;;4.88;2.13;;;8.30;99.90;;;;;;5048274;28;20107;-82
2021/12/24 14:09:32;;;;;;;4.10;1.83;;;8.40;99.90;;;;;;5063802;28;20027;-82
2021/12/24 14:12:02;;;;;;;2.13;1.75;;;8.30;99.90;;;;;;5056838;28;20108;-80
2021/12/24 14:14:51;;;;;;;3.90;1.85;;;8.30;99.90;;;;;;5034485;28;20025;-83
2021/12/24 14:22:23;;;;;;;3.80;2.15;;;8.20;99.90;;;;;;5067931;28;20023;-82
2021/12/24 14:24:56;;;;;;;26.45;12.20;;;8.10;99.90;;;;;;5052411;28;20044;-82
2021/12/24 14:27:24;;;;;;;8.63;4.72;;;8.10;99.90;;;;;;5074956;28;20134;-82
2021/12/24 14:30:03;;;;;;;6.10;4.38;;;8.10;99.90;;;;;;5063822;28;20017;-82
2021/12/24 14:32:37;;;;;;;3.90;2.85;;;8.10;99.90;;;;;;5042784;28;20044;-82
2021/12/24 14:35:20;;;;;;;4.40;1.20;;;8.10;1.00;;;;;;5061738;28;20032;-83
2021/12/24 14:37:54;;;;;;;2.47;1.38;;;7.90;1.00;;;;;;5068237;28;20020;-83
2021/12/24 14:40:20;;;;;;;1.90;0.70;;;7.80;1.00;;;;;;5066685;28;20020;-82
2021/12/24 14:42:50;;;;;;;2.20;1.38;;;7.60;1.00;;;;;;5064852;28;20035;-83
2021/12/24 14:45:33;;;;;;;1.92;0.95;;;7.60;1.00;;;;;;5044255;28;20090;-83
2021/12/24 14:48:07;;;;;;;1.02;0.52;;;7.50;1.00;;;;;;5036681;28;20112;-83
2021/12/24 14:50:48;;;;;;;2.85;0.68;;;7.40;99.90;;;;;;5063266;28;20438;-83
2021/12/24 14:53:20;;;;;;;0.85;0.50;;;7.30;1.00;;;;;;5048891;28;20077;-83
2021/12/24 14:55:47;;;;;;;1.88;0.38;;;7.30;1.00;;;;;;5059910;28;20035;-82
2021/12/24 14:58:26;;;;;;;0.32;0.20;;;7.10;1.00;;;;;;5054926;28;20056;-82
2021/12/24 15:00:53;;;;;;;1.10;0.30;;;7.00;99.90;;;;;;5061626;28;20063;-82
2021/12/24 15:03:20;;;;;;;2.70;0.60;;;6.80;1.00;;;;;;5052061;28;20024;-82
2021/12/24 15:05:48;;;;;;;4.90;0.80;;;6.70;1.00;;;;;;5045923;28;20025;-83
2021/12/24 15:08:18;;;;;;;0.75;0.40;;;6.60;1.00;;;;;;5045269;28;20785;-82
2021/12/24 15:11:04;;;;;;;3.00;0.60;;;6.60;1.00;;;;;;5066708;28;20085;-82
2021/12/24 15:13:30;;;;;;;4.07;1.90;;;6.50;99.90;;;;;;5069570;28;20024;-83